createdAt,value
2022-10-15T00:01:46.333Z,99.90
2022-10-15T00:04:14.628Z,99.90
2022-10-15T00:06:43.520Z,99.90
2022-10-15T00:09:11.940Z,99.90
2022-10-15T00:11:57.886Z,99.90
2022-10-15T00:14:26.755Z,99.90
2022-10-15T00:16:56.408Z,99.90
2022-10-15T00:19:24.598Z,99.90
2022-10-15T00:21:52.880Z,99.90
2022-10-15T00:24:21.290Z,99.90
2022-10-15T00:26:52.465Z,99.90
2022-10-15T00:29:21.021Z,99.90
2022-10-15T00:31:49.254Z,99.90
2022-10-15T00:34:18.873Z,99.90
2022-10-15T00:36:47.101Z,99.90
2022-10-15T00:39:15.341Z,99.90
2022-10-15T00:41:45.960Z,99.90
2022-10-15T00:44:58.527Z,99.90
2022-10-15T00:47:40.356Z,99.90
2022-10-15T00:53:11.032Z,99.90
2022-10-15T00:55:42.490Z,99.90
2022-10-15T00:58:14.430Z,99.90
2022-10-15T01:00:43.362Z,99.90
2022-10-15T01:03:16.826Z,99.90
2022-10-15T01:05:51.159Z,99.90
2022-10-15T01:08:19.760Z,99.90
2022-10-15T01:10:56.760Z,99.90
2022-10-15T01:13:35.144Z,99.90
2022-10-15T01:16:27.819Z,99.90
2022-10-15T01:19:06.047Z,99.90
2022-10-15T01:21:40.508Z,99.90
2022-10-15T01:24:45.235Z,99.90
2022-10-15T01:27:30.795Z,99.90
2022-10-15T01:30:12.795Z,99.90
2022-10-15T01:32:46.443Z,99.90
2022-10-15T01:35:22.423Z,99.90
2022-10-15T01:38:01.115Z,99.90
2022-10-15T01:40:36.591Z,99.90
2022-10-15T01:43:10.756Z,99.90
2022-10-15T01:45:46.388Z,99.90
2022-10-15T01:48:17.383Z,99.90
2022-10-15T01:50:50.366Z,99.90
2022-10-15T01:53:26.565Z,99.90
2022-10-15T01:55:57.962Z,99.90
2022-10-15T01:58:27.098Z,99.90
2022-10-15T02:00:59.809Z,99.90
2022-10-15T02:03:28.173Z,99.90
2022-10-15T02:06:02.435Z,99.90
2022-10-15T02:08:40.787Z,99.90
2022-10-15T02:11:13.373Z,99.90
2022-10-15T02:13:50.670Z,99.90
2022-10-15T02:16:25.125Z,99.90
2022-10-15T02:19:00.625Z,99.90
2022-10-15T02:21:33.226Z,99.90
2022-10-15T02:24:10.171Z,99.90
2022-10-15T02:26:39.536Z,99.90
2022-10-15T02:29:12.669Z,99.90
2022-10-15T02:31:51.080Z,99.90
2022-10-15T02:34:22.682Z,99.90
2022-10-15T02:36:50.919Z,99.90
2022-10-15T02:39:22.557Z,99.90
2022-10-15T02:41:50.526Z,99.90
2022-10-15T02:44:18.828Z,99.90
2022-10-15T02:46:48.490Z,99.90
2022-10-15T02:49:16.777Z,99.90
2022-10-15T02:51:44.990Z,99.90
2022-10-15T02:54:13.275Z,99.90
2022-10-15T02:56:41.496Z,99.90
2022-10-15T02:59:09.875Z,99.90
2022-10-15T03:01:38.099Z,99.90
2022-10-15T03:04:07.944Z,99.90
2022-10-15T03:06:36.130Z,99.90
2022-10-15T03:09:05.139Z,99.90
2022-10-15T03:11:33.344Z,99.90
2022-10-15T03:14:01.540Z,99.90
2022-10-15T03:16:29.892Z,99.90
2022-10-15T03:18:58.361Z,99.90
2022-10-15T03:21:30.962Z,99.90
2022-10-15T03:24:03.225Z,99.90
2022-10-15T03:26:31.922Z,99.90
2022-10-15T03:29:02.187Z,99.90
2022-10-15T03:31:30.377Z,99.90
2022-10-15T03:33:58.603Z,99.90
2022-10-15T03:36:28.189Z,99.90
2022-10-15T03:38:56.410Z,99.90
2022-10-15T03:41:25.270Z,99.90
2022-10-15T03:43:53.462Z,99.90
2022-10-15T03:46:21.657Z,99.90
2022-10-15T03:48:51.019Z,99.90
2022-10-15T03:51:22.791Z,99.90
2022-10-15T03:53:55.241Z,99.90
2022-10-15T03:56:35.240Z,99.90
2022-10-15T03:59:04.584Z,99.90
2022-10-15T04:01:32.886Z,99.90
2022-10-15T04:04:01.315Z,99.90
2022-10-15T04:06:29.537Z,99.90
2022-10-15T04:08:59.263Z,99.90
2022-10-15T04:11:27.499Z,99.90
2022-10-15T04:13:55.735Z,99.90
2022-10-15T04:16:24.178Z,99.90
2022-10-15T04:18:52.371Z,99.90
2022-10-15T04:21:21.580Z,99.90
2022-10-15T04:23:49.735Z,99.90
2022-10-15T04:26:19.773Z,99.90
2022-10-15T04:28:49.747Z,99.90
2022-10-15T04:31:18.015Z,99.90
2022-10-15T04:33:48.890Z,99.90
2022-10-15T04:38:50.311Z,99.90
2022-10-15T04:41:19.968Z,99.90
2022-10-15T04:43:48.130Z,99.90
2022-10-15T04:46:16.373Z,99.90
2022-10-15T04:48:44.599Z,99.90
2022-10-15T04:51:14.610Z,99.90
2022-10-15T04:53:42.763Z,99.90
2022-10-15T04:56:13.905Z,99.90
2022-10-15T04:58:44.730Z,99.90
2022-10-15T05:01:15.075Z,99.90
2022-10-15T05:03:45.526Z,99.90
2022-10-15T05:06:15.600Z,99.90
2022-10-15T05:08:44.449Z,99.90
2022-10-15T05:11:14.684Z,99.90
2022-10-15T05:13:44.355Z,99.90
2022-10-15T05:16:14.236Z,99.90
2022-10-15T05:18:43.808Z,99.90
2022-10-15T05:21:12.949Z,99.90
2022-10-15T05:23:41.326Z,99.90
2022-10-15T05:26:12.634Z,99.90
2022-10-15T05:28:41.210Z,99.90
2022-10-15T05:31:18.319Z,99.90
2022-10-15T05:33:47.789Z,99.90
2022-10-15T05:36:19.402Z,99.90
2022-10-15T05:38:47.741Z,99.90
2022-10-15T05:41:16.321Z,99.90
2022-10-15T05:43:44.712Z,99.90
2022-10-15T05:46:14.266Z,99.90
2022-10-15T05:48:42.590Z,99.90
2022-10-15T05:51:14.349Z,99.90
2022-10-15T05:53:43.499Z,99.90
2022-10-15T05:56:11.974Z,99.90
2022-10-15T05:58:40.714Z,99.90
2022-10-15T06:01:11.229Z,99.90
2022-10-15T06:03:42.640Z,99.90
2022-10-15T06:06:18.620Z,99.90
2022-10-15T06:08:47.284Z,99.90
2022-10-15T06:11:15.831Z,99.90
2022-10-15T06:13:51.260Z,99.90
2022-10-15T06:16:23.575Z,99.90
2022-10-15T06:18:54.803Z,99.90
2022-10-15T06:21:23.851Z,99.90
2022-10-15T06:23:52.310Z,99.90
2022-10-15T06:26:20.904Z,99.90
2022-10-15T06:28:49.383Z,99.90
2022-10-15T06:31:17.694Z,99.90
2022-10-15T06:33:45.886Z,99.90
2022-10-15T06:36:15.578Z,99.90
2022-10-15T06:38:44.852Z,99.90
2022-10-15T06:41:13.832Z,99.90
2022-10-15T06:43:42.136Z,99.90
2022-10-15T06:46:10.777Z,99.90
2022-10-15T06:48:38.998Z,99.90
2022-10-15T06:51:07.480Z,99.90
2022-10-15T06:53:42.263Z,99.90
2022-10-15T06:56:10.703Z,99.90
2022-10-15T06:58:38.885Z,99.90
2022-10-15T07:01:08.985Z,99.90
2022-10-15T07:03:39.032Z,99.90
2022-10-15T07:06:09.051Z,99.90
2022-10-15T07:08:38.719Z,99.90
2022-10-15T07:11:08.877Z,99.90
2022-10-15T07:13:38.131Z,99.90
2022-10-15T07:16:07.989Z,99.90
2022-10-15T07:18:37.103Z,99.90
2022-10-15T07:21:07.317Z,99.90
2022-10-15T07:23:35.548Z,99.90
2022-10-15T07:26:05.277Z,99.90
2022-10-15T07:28:33.733Z,99.90
2022-10-15T07:31:03.209Z,99.90
2022-10-15T07:33:31.667Z,99.90
2022-10-15T07:35:59.940Z,99.90
2022-10-15T07:38:28.377Z,99.90
2022-10-15T07:40:59.657Z,99.90
2022-10-15T07:43:29.284Z,99.90
2022-10-15T07:45:57.465Z,99.90
2022-10-15T07:48:26.099Z,99.90
2022-10-15T07:50:57.381Z,99.90
2022-10-15T07:53:26.188Z,99.90
2022-10-15T07:55:54.743Z,99.90
2022-10-15T07:58:22.961Z,99.90
2022-10-15T08:00:52.612Z,99.90
2022-10-15T08:03:20.900Z,99.90
2022-10-15T08:05:53.166Z,99.90
2022-10-15T08:08:21.630Z,99.90
2022-10-15T08:10:50.097Z,99.90
2022-10-15T08:13:19.263Z,99.90
2022-10-15T08:15:47.980Z,99.90
2022-10-15T08:18:17.879Z,99.90
2022-10-15T08:20:46.156Z,99.90
2022-10-15T08:23:17.529Z,99.90
2022-10-15T08:25:46.175Z,99.90
2022-10-15T08:28:14.403Z,99.90
2022-10-15T08:30:42.696Z,99.90
2022-10-15T08:33:11.057Z,99.90
2022-10-15T08:35:43.624Z,99.90
2022-10-15T08:38:14.799Z,99.90
2022-10-15T08:40:49.316Z,99.90
2022-10-15T08:43:23.139Z,99.90
2022-10-15T08:45:55.891Z,99.90
2022-10-15T08:48:31.359Z,99.90
2022-10-15T08:51:04.944Z,99.90
2022-10-15T08:53:39.854Z,99.90
2022-10-15T08:56:16.202Z,99.90
2022-10-15T08:58:50.281Z,99.90
2022-10-15T09:01:26.501Z,99.90
2022-10-15T09:04:03.905Z,99.90
2022-10-15T09:06:37.547Z,99.90
2022-10-15T09:09:14.730Z,99.90
2022-10-15T09:11:52.559Z,99.90
2022-10-15T09:14:26.021Z,99.90
2022-10-15T09:16:54.245Z,99.90
2022-10-15T09:19:24.620Z,99.90
2022-10-15T09:21:54.308Z,99.90
2022-10-15T09:24:24.333Z,99.90
2022-10-15T09:27:02.401Z,99.90
2022-10-15T09:29:34.665Z,99.90
2022-10-15T09:32:13.071Z,99.90
2022-10-15T09:34:46.595Z,99.90
2022-10-15T09:37:22.517Z,99.90
2022-10-15T09:40:13.095Z,99.90
2022-10-15T09:42:43.744Z,99.90
2022-10-15T09:45:14.811Z,99.90
2022-10-15T09:47:44.708Z,99.90
2022-10-15T09:50:15.100Z,99.90
2022-10-15T09:53:03.288Z,99.90
2022-10-15T09:55:45.022Z,99.90
2022-10-15T09:58:18.198Z,99.90
2022-10-15T10:01:01.409Z,99.90
2022-10-15T10:03:32.744Z,99.90
2022-10-15T10:06:01.841Z,99.90
2022-10-15T10:08:36.380Z,99.90
2022-10-15T10:11:07.477Z,99.90
2022-10-15T10:13:40.245Z,99.90
2022-10-15T10:16:11.385Z,99.90
2022-10-15T10:18:40.106Z,99.90
2022-10-15T10:21:22.415Z,99.90
2022-10-15T10:23:52.488Z,99.90
2022-10-15T10:26:22.270Z,99.90
2022-10-15T10:28:57.053Z,99.90
2022-10-15T10:31:42.503Z,99.90
2022-10-15T10:34:17.626Z,99.90
2022-10-15T10:36:50.778Z,99.90
2022-10-15T10:39:26.931Z,99.90
2022-10-15T10:41:57.723Z,99.90
2022-10-15T10:44:31.663Z,99.90
2022-10-15T10:47:16.586Z,99.90
2022-10-15T10:49:46.621Z,99.90
2022-10-15T10:52:26.179Z,99.90
2022-10-15T10:55:07.797Z,99.90
2022-10-15T10:57:45.408Z,99.90
2022-10-15T11:00:18.329Z,99.90
2022-10-15T11:02:46.826Z,99.90
2022-10-15T11:05:15.791Z,99.90
2022-10-15T11:07:53.086Z,99.90
2022-10-15T11:10:26.978Z,99.90
2022-10-15T11:13:14.078Z,99.90
2022-10-15T11:15:51.045Z,99.90
2022-10-15T11:18:32.830Z,99.90
2022-10-15T11:21:12.163Z,99.90
2022-10-15T11:24:04.455Z,99.90
2022-10-15T11:26:52.513Z,99.90
2022-10-15T11:29:39.074Z,99.90
2022-10-15T11:32:22.209Z,99.90
2022-10-15T11:35:09.973Z,99.90
2022-10-15T11:37:47.873Z,99.90
2022-10-15T11:40:21.886Z,99.90
2022-10-15T11:42:58.423Z,99.90
2022-10-15T11:45:40.298Z,99.90
2022-10-15T11:48:14.232Z,99.90
2022-10-15T11:50:48.485Z,99.90
2022-10-15T11:53:40.741Z,99.90
2022-10-15T11:56:14.690Z,99.90
2022-10-15T11:58:47.027Z,99.90
2022-10-15T12:01:21.419Z,99.90
2022-10-15T12:03:54.983Z,99.90
2022-10-15T12:06:26.153Z,99.90
2022-10-15T12:08:56.272Z,99.90
2022-10-15T12:11:35.031Z,99.90
2022-10-15T12:14:14.660Z,99.90
2022-10-15T12:16:52.003Z,99.90
2022-10-15T12:19:23.036Z,99.90
2022-10-15T12:22:09.692Z,99.90
2022-10-15T12:24:56.511Z,99.90
2022-10-15T12:27:34.562Z,99.90
2022-10-15T12:30:27.454Z,99.90
2022-10-15T12:32:55.793Z,99.90
2022-10-15T12:35:35.169Z,99.90
2022-10-15T12:38:29.020Z,99.90
2022-10-15T12:41:01.598Z,99.90
2022-10-15T12:43:31.327Z,99.90
2022-10-15T12:46:03.952Z,99.90
2022-10-15T12:48:44.282Z,99.90
2022-10-15T12:51:40.226Z,99.90
2022-10-15T12:54:40.717Z,99.90
2022-10-15T12:57:58.619Z,99.90
2022-10-15T13:00:44.625Z,99.90
2022-10-15T13:03:29.204Z,99.90
2022-10-15T13:06:13.597Z,99.90
2022-10-15T13:08:49.102Z,99.90
2022-10-15T13:11:22.784Z,99.90
2022-10-15T13:13:54.051Z,99.90
2022-10-15T13:16:24.126Z,99.90
2022-10-15T13:18:57.257Z,99.90
2022-10-15T13:21:50.700Z,99.90
2022-10-15T13:24:20.982Z,99.90
2022-10-15T13:26:50.012Z,99.90
2022-10-15T13:29:19.880Z,99.90
2022-10-15T13:31:48.446Z,99.90
2022-10-15T13:34:27.054Z,99.90
2022-10-15T13:36:56.554Z,99.90
2022-10-15T13:42:15.025Z,97.60
2022-10-15T13:44:43.905Z,98.10
2022-10-15T13:47:27.336Z,93.80
2022-10-15T13:50:15.559Z,89.40
2022-10-15T13:52:45.734Z,87.90
2022-10-15T13:55:20.807Z,88.30
2022-10-15T13:57:51.087Z,86.30
2022-10-15T14:00:25.969Z,83.10
2022-10-15T14:03:20.699Z,82.70
2022-10-15T14:05:52.708Z,83.00
2022-10-15T14:08:27.612Z,82.70
2022-10-15T14:10:58.902Z,85.50
2022-10-15T14:13:27.562Z,86.60
2022-10-15T14:18:39.811Z,84.20
2022-10-15T14:21:14.914Z,85.00
2022-10-15T14:23:46.042Z,81.10
2022-10-15T14:26:15.461Z,82.30
2022-10-15T14:28:51.400Z,85.40
2022-10-15T14:31:38.661Z,89.00
2022-10-15T14:34:07.397Z,91.40
2022-10-15T14:36:52.033Z,92.40
2022-10-15T14:39:30.124Z,93.00
2022-10-15T14:42:00.889Z,93.70
2022-10-15T14:44:42.042Z,94.50
2022-10-15T14:47:20.954Z,95.40
2022-10-15T14:49:51.674Z,95.30
2022-10-15T14:52:22.968Z,95.60
2022-10-15T14:55:08.244Z,95.90
2022-10-15T14:57:41.076Z,96.20
2022-10-15T15:00:17.569Z,96.80
2022-10-15T15:02:45.925Z,97.40
2022-10-15T15:05:22.503Z,97.70
2022-10-15T15:07:52.665Z,98.40
2022-10-15T15:10:21.422Z,98.50
2022-10-15T15:12:54.148Z,98.90
2022-10-15T15:15:24.466Z,99.30
2022-10-15T15:17:53.109Z,99.90
2022-10-15T15:20:24.245Z,99.90
2022-10-15T15:22:56.095Z,99.90
2022-10-15T15:25:30.122Z,99.90
2022-10-15T15:27:59.441Z,99.90
2022-10-15T15:30:30.262Z,99.90
2022-10-15T15:33:00.651Z,99.90
2022-10-15T15:35:35.120Z,99.90
2022-10-15T15:38:07.439Z,99.90
2022-10-15T15:40:35.891Z,99.90
2022-10-15T15:43:04.579Z,99.90
2022-10-15T15:45:33.294Z,99.90
2022-10-15T15:48:03.690Z,99.90
2022-10-15T15:50:33.605Z,99.90
2022-10-15T15:53:02.850Z,99.90
2022-10-15T15:55:33.047Z,99.90
2022-10-15T15:58:04.171Z,99.90
2022-10-15T16:00:32.387Z,99.90
2022-10-15T16:03:01.375Z,99.90
2022-10-15T16:05:30.927Z,99.90
2022-10-15T16:08:03.132Z,99.90
2022-10-15T16:10:33.046Z,99.90
2022-10-15T16:13:01.258Z,99.90
2022-10-15T16:15:29.524Z,99.90
2022-10-15T16:17:57.688Z,99.90
2022-10-15T16:20:25.965Z,99.90
2022-10-15T16:22:55.022Z,99.90
2022-10-15T16:25:26.392Z,99.90
2022-10-15T16:28:02.221Z,99.90
2022-10-15T16:30:30.454Z,99.90
2022-10-15T16:32:59.133Z,99.90
2022-10-15T16:35:27.788Z,99.90
2022-10-15T16:37:56.349Z,99.90
2022-10-15T16:40:24.865Z,99.90
2022-10-15T16:42:53.059Z,99.90
2022-10-15T16:45:22.764Z,99.90
2022-10-15T16:47:50.919Z,99.90
2022-10-15T16:50:19.291Z,99.90
2022-10-15T16:52:47.701Z,99.90
2022-10-15T16:55:16.897Z,99.90
2022-10-15T16:57:46.424Z,99.90
2022-10-15T17:00:15.401Z,99.90
2022-10-15T17:02:45.830Z,99.90
2022-10-15T17:05:14.809Z,99.90
2022-10-15T17:07:43.157Z,99.90
2022-10-15T17:10:14.024Z,99.90
2022-10-15T17:12:43.713Z,99.90
2022-10-15T17:15:12.621Z,99.90
2022-10-15T17:17:41.187Z,99.90
2022-10-15T17:20:13.140Z,99.90
2022-10-15T17:22:41.432Z,99.90
2022-10-15T17:25:10.238Z,99.90
2022-10-15T17:27:38.396Z,99.90
2022-10-15T17:30:08.406Z,99.90
2022-10-15T17:32:36.868Z,99.90
2022-10-15T17:35:08.173Z,99.90
2022-10-15T17:37:40.397Z,99.90
2022-10-15T17:40:11.274Z,99.90
2022-10-15T17:42:42.811Z,99.90
2022-10-15T17:45:12.233Z,99.90
2022-10-15T17:47:40.464Z,99.90
2022-10-15T17:50:09.279Z,99.90
2022-10-15T17:52:38.930Z,99.90
2022-10-15T17:55:08.082Z,99.90
2022-10-15T17:57:36.347Z,99.90
2022-10-15T18:00:04.872Z,99.90
2022-10-15T18:02:33.054Z,99.90
2022-10-15T18:05:02.124Z,99.90
2022-10-15T18:07:30.704Z,99.90
2022-10-15T18:10:01.697Z,99.90
2022-10-15T18:12:30.646Z,99.90
2022-10-15T18:14:58.909Z,99.90
2022-10-15T18:17:27.760Z,99.90
2022-10-15T18:19:56.225Z,99.90
2022-10-15T18:22:24.455Z,99.90
2022-10-15T18:24:52.777Z,99.90
2022-10-15T18:27:23.404Z,99.90
2022-10-15T18:29:52.457Z,99.90
2022-10-15T18:32:21.225Z,99.90
2022-10-15T18:34:49.552Z,99.90
2022-10-15T18:37:17.966Z,99.90
2022-10-15T18:39:46.218Z,99.90
2022-10-15T18:42:15.035Z,99.90
2022-10-15T18:44:45.731Z,99.90
2022-10-15T18:47:14.238Z,99.90
2022-10-15T18:49:43.840Z,99.90
2022-10-15T18:52:21.670Z,99.90
2022-10-15T18:54:56.485Z,99.90
2022-10-15T18:57:24.937Z,99.90
2022-10-15T18:59:55.390Z,99.90
2022-10-15T19:02:24.135Z,99.90
2022-10-15T19:04:52.543Z,99.90
2022-10-15T19:07:20.823Z,99.90
2022-10-15T19:09:49.045Z,99.90
2022-10-15T19:12:17.283Z,99.90
2022-10-15T19:14:45.959Z,99.90
2022-10-15T19:17:16.005Z,99.90
2022-10-15T19:19:49.980Z,99.90
2022-10-15T19:22:18.673Z,99.90
2022-10-15T19:24:46.849Z,99.90
2022-10-15T19:27:15.300Z,99.90
2022-10-15T19:29:43.480Z,99.90
2022-10-15T19:32:11.651Z,99.90
2022-10-15T19:34:41.305Z,99.90
2022-10-15T19:37:09.523Z,99.90
2022-10-15T19:39:37.755Z,99.90
2022-10-15T19:42:06.090Z,99.90
2022-10-15T19:44:34.378Z,99.90
2022-10-15T19:47:02.545Z,99.90
2022-10-15T19:49:31.122Z,99.90
2022-10-15T19:52:02.266Z,99.90
2022-10-15T19:54:31.268Z,99.90
2022-10-15T19:56:59.874Z,99.90
2022-10-15T19:59:28.591Z,99.90
2022-10-15T20:01:56.960Z,99.90
2022-10-15T20:04:25.246Z,99.90
2022-10-15T20:06:53.663Z,99.90
2022-10-15T20:09:23.317Z,99.90
2022-10-15T20:11:51.602Z,99.90
2022-10-15T20:14:19.921Z,99.90
2022-10-15T20:16:48.327Z,99.90
2022-10-15T20:19:16.651Z,99.90
2022-10-15T20:21:44.960Z,99.90
2022-10-15T20:24:13.188Z,99.90
2022-10-15T20:26:42.907Z,99.90
2022-10-15T20:29:11.145Z,99.90
2022-10-15T20:31:39.972Z,99.90
2022-10-15T20:34:09.151Z,99.90
2022-10-15T20:36:41.309Z,99.90
2022-10-15T20:39:09.674Z,99.90
2022-10-15T20:41:38.337Z,99.90
2022-10-15T20:44:09.713Z,99.90
2022-10-15T20:46:46.227Z,99.90
2022-10-15T20:49:19.473Z,99.90
2022-10-15T20:51:47.908Z,99.90
2022-10-15T20:54:16.663Z,99.90
2022-10-15T20:56:44.956Z,99.90
2022-10-15T20:59:14.595Z,99.90
2022-10-15T21:01:43.741Z,99.90
2022-10-15T21:04:12.529Z,99.90
2022-10-15T21:06:44.344Z,99.90
2022-10-15T21:09:13.016Z,99.90
2022-10-15T21:11:42.803Z,99.90
2022-10-15T21:14:11.414Z,99.90
2022-10-15T21:16:41.250Z,99.90
2022-10-15T21:19:09.771Z,99.90
2022-10-15T21:21:38.012Z,99.90
2022-10-15T21:24:06.962Z,99.90
2022-10-15T21:26:35.231Z,99.90
2022-10-15T21:29:03.562Z,99.90
2022-10-15T21:31:31.889Z,99.90
2022-10-15T21:34:01.567Z,99.90
2022-10-15T21:36:30.186Z,99.90
2022-10-15T21:38:59.916Z,99.90
2022-10-15T21:41:31.055Z,99.90
2022-10-15T21:44:00.994Z,99.90
2022-10-15T21:46:30.633Z,99.90
2022-10-15T21:48:59.417Z,99.90
2022-10-15T21:51:31.331Z,99.90
2022-10-15T21:54:00.568Z,99.90
2022-10-15T21:56:29.326Z,99.90
2022-10-15T21:58:59.095Z,99.90
2022-10-15T22:01:30.931Z,99.90
2022-10-15T22:04:01.303Z,99.90
2022-10-15T22:06:32.043Z,99.90
2022-10-15T22:09:01.007Z,99.90
2022-10-15T22:11:30.953Z,99.90
2022-10-15T22:14:00.640Z,99.90
2022-10-15T22:16:29.875Z,99.90
2022-10-15T22:18:58.763Z,99.90
2022-10-15T22:21:29.176Z,99.90
2022-10-15T22:24:00.891Z,99.90
2022-10-15T22:26:31.478Z,99.90
2022-10-15T22:29:02.156Z,99.90
2022-10-15T22:31:30.773Z,99.90
2022-10-15T22:33:59.137Z,99.90
2022-10-15T22:36:29.252Z,99.90
2022-10-15T22:39:01.734Z,99.90
2022-10-15T22:41:31.241Z,99.90
2022-10-15T22:43:59.949Z,99.90
2022-10-15T22:46:28.585Z,99.90
2022-10-15T22:48:56.799Z,99.90
2022-10-15T22:51:25.417Z,99.90
2022-10-15T22:53:56.170Z,99.90
2022-10-15T22:56:26.987Z,99.90
2022-10-15T22:58:57.168Z,99.90
2022-10-15T23:01:27.629Z,99.90
2022-10-15T23:03:57.705Z,99.90
2022-10-15T23:06:26.833Z,99.90
2022-10-15T23:08:56.467Z,99.90
2022-10-15T23:11:28.187Z,99.90
2022-10-15T23:13:59.352Z,99.90
2022-10-15T23:16:29.352Z,99.90
2022-10-15T23:18:59.422Z,99.90
2022-10-15T23:21:31.466Z,99.90
2022-10-15T23:24:01.132Z,99.90
2022-10-15T23:26:31.299Z,99.90
2022-10-15T23:29:01.691Z,99.90
2022-10-15T23:31:32.418Z,99.90
2022-10-15T23:34:01.866Z,99.90
2022-10-15T23:36:31.434Z,99.90
2022-10-15T23:39:01.109Z,99.90
2022-10-15T23:41:31.981Z,99.90
2022-10-15T23:44:00.957Z,99.90
2022-10-15T23:46:29.203Z,99.90
2022-10-15T23:48:57.528Z,99.90
2022-10-15T23:51:28.063Z,99.90
2022-10-15T23:53:59.445Z,99.90
2022-10-15T23:56:29.542Z,99.90
2022-10-15T23:59:01.519Z,99.90
